Time;durP1;ratioP1;P1;durP2;ratioP2;P2;SDS_P1;SDS_P2;PMS_P1;PMS_P2;Temp;Humidity;BMP_temperature;BMP_pressure;BME280_temperature;BME280_humidity;BME280_pressure;Samples;Min_cycle;Max_cycle;Signal;HPM_P1;HPM_P2
2021/01/13 00:01:36;;;;;;;46.63;23.35;;;;;;;2.76;67.73;98617.03;5045069;28;20057;-68
2021/01/13 00:04:03;;;;;;;44.85;23.90;;;;;;;2.78;67.72;98615.16;5046349;28;20041;-70
2021/01/13 00:06:29;;;;;;;60.88;27.90;;;;;;;2.78;67.63;98610.75;5045345;28;20049;-70
2021/01/13 00:08:56;;;;;;;58.55;30.67;;;;;;;2.75;67.99;98613.56;5045355;28;20492;-69
2021/01/13 00:11:22;;;;;;;47.78;25.92;;;;;;;2.79;68.00;98608.97;5047341;28;20105;-73
2021/01/13 00:13:49;;;;;;;50.38;25.05;;;;;;;2.82;67.76;98617.44;5050206;28;20041;-67
2021/01/13 00:16:16;;;;;;;46.58;27.33;;;;;;;2.85;67.93;98617.25;5048313;28;20049;-67
2021/01/13 00:18:42;;;;;;;53.90;25.30;;;;;;;2.83;68.05;98613.91;5049578;28;20041;-75
2021/01/13 00:21:13;;;;;;;49.83;26.38;;;;;;;2.87;68.03;98612.75;5046557;28;20132;-68
2021/01/13 00:23:43;;;;;;;44.80;23.73;;;;;;;2.89;67.93;98620.47;5047241;28;20045;-69
2021/01/13 00:26:10;;;;;;;46.33;26.95;;;;;;;2.86;68.34;98613.72;5047620;28;20049;-68
2021/01/13 00:28:36;;;;;;;40.70;21.98;;;;;;;2.85;68.40;98622.44;5048779;28;20409;-67
2021/01/13 00:31:03;;;;;;;46.42;28.05;;;;;;;2.76;68.85;98617.03;5046079;28;20117;-68
2021/01/13 00:33:30;;;;;;;45.45;28.08;;;;;;;2.83;68.82;98629.56;5045029;28;20056;-69
2021/01/13 00:35:57;;;;;;;39.95;27.70;;;;;;;2.81;68.82;98636.63;5043991;28;20048;-78
2021/01/13 00:38:23;;;;;;;41.78;24.80;;;;;;;2.77;69.10;98629.94;5043591;28;20097;-73
2021/01/13 00:40:49;;;;;;;42.95;24.42;;;;;;;2.82;68.84;98621.81;5052379;28;20052;-77
2021/01/13 00:43:16;;;;;;;47.25;31.20;;;;;;;2.71;69.63;98634.75;5056838;28;20079;-74
2021/01/13 00:45:42;;;;;;;50.28;30.27;;;;;;;2.71;69.61;98630.34;5059728;28;20051;-76
2021/01/13 00:48:10;;;;;;;48.10;31.45;;;;;;;2.63;70.07;98630.03;5062666;28;20120;-70
2021/01/13 00:50:37;;;;;;;45.22;39.35;;;;;;;2.56;70.31;98631.38;5058892;28;20061;-73
2021/01/13 00:53:04;;;;;;;49.50;32.33;;;;;;;2.49;70.93;98638.75;5061290;28;20131;-69
2021/01/13 00:55:31;;;;;;;37.38;19.42;;;;;;;2.64;69.90;98642.94;5063878;28;20055;-68
2021/01/13 00:57:58;;;;;;;46.75;34.92;;;;;;;2.55;70.68;98640.13;5061093;28;20060;-73
2021/01/13 01:00:24;;;;;;;40.17;25.45;;;;;;;2.54;70.65;98649.72;5061413;28;20314;-73
2021/01/13 01:02:51;;;;;;;47.95;31.10;;;;;;;2.48;70.55;98650.97;5062503;28;20163;-72
2021/01/13 01:05:18;;;;;;;47.65;34.47;;;;;;;2.49;71.03;98647.41;5056852;28;20049;-69
2021/01/13 01:07:45;;;;;;;50.50;35.70;;;;;;;2.43;71.21;98650.41;5056216;28;20036;-69
2021/01/13 01:10:18;;;;;;;47.85;35.30;;;;;;;2.46;71.29;98652.81;5058459;28;20041;-70
2021/01/13 01:12:44;;;;;;;47.70;31.83;;;;;;;2.38;71.57;98652.47;5057611;28;20059;-73
2021/01/13 01:15:12;;;;;;;47.13;38.92;;;;;;;2.36;71.51;98656.09;5058190;28;20064;-69
2021/01/13 01:17:39;;;;;;;53.03;31.63;;;;;;;2.31;71.89;98674.66;5059443;28;20056;-71
2021/01/13 01:20:06;;;;;;;50.88;37.22;;;;;;;2.35;71.72;98670.91;5059895;28;20068;-76
2021/01/13 01:22:34;;;;;;;58.28;37.45;;;;;;;2.33;71.95;98670.19;5059717;28;20045;-69
2021/01/13 01:25:00;;;;;;;46.22;32.30;;;;;;;2.33;71.87;98666.75;5052884;28;20100;-80
2021/01/13 01:27:26;;;;;;;52.50;40.13;;;;;;;2.34;71.79;98669.25;5051272;28;20045;-68
2021/01/13 01:29:53;;;;;;;52.25;38.65;;;;;;;2.29;72.18;98676.53;5053053;28;20106;-67
2021/01/13 01:32:19;;;;;;;49.47;31.48;;;;;;;2.28;71.84;98686.09;5053231;28;20041;-76
2021/01/13 01:34:46;;;;;;;42.70;38.00;;;;;;;2.29;71.58;98676.53;5053033;28;20053;-77
2021/01/13 01:37:12;;;;;;;40.88;31.98;;;;;;;2.21;71.35;98687.41;5051730;28;20045;-77
2021/01/13 01:39:39;;;;;;;40.80;32.05;;;;;;;2.05;71.44;98682.34;5052396;28;20059;-68
2021/01/13 01:42:06;;;;;;;37.55;29.42;;;;;;;2.09;71.00;98690.81;5051556;28;20052;-75
2021/01/13 01:44:32;;;;;;;38.88;29.08;;;;;;;2.11;70.85;98686.34;5051947;28;20114;-70
2021/01/13 01:47:04;;;;;;;35.70;27.88;;;;;;;2.10;70.56;98705.50;5050820;28;20549;-69
2021/01/13 01:49:32;;;;;;;38.60;29.92;;;;;;;2.09;70.66;98702.06;5049360;28;20052;-73
2021/01/13 01:52:08;;;;;;;42.72;30.30;;;;;;;2.04;71.04;98708.50;5051367;28;20049;-70
2021/01/13 01:54:36;;;;;;;46.17;30.92;;;;;;;2.08;70.61;98709.97;5051008;28;20044;-80
2021/01/13 01:57:04;;;;;;;41.83;29.35;;;;;;;2.03;70.56;98710.22;5050026;28;20045;-68
2021/01/13 01:59:56;;;;;;;40.85;25.20;;;;;;;1.98;70.09;98704.50;5050588;28;20049;-69
2021/01/13 02:02:26;;;;;;;34.90;24.13;;;;;;;1.91;69.79;98719.66;5049496;28;20136;-69
2021/01/13 02:04:55;;;;;;;30.40;23.48;;;;;;;1.90;69.81;98714.53;5049428;28;20071;-69
2021/01/13 02:07:33;;;;;;;30.45;19.58;;;;;;;1.92;69.58;98729.13;5050194;28;20497;-70
2021/01/13 02:10:01;;;;;;;25.55;17.33;;;;;;;1.99;68.78;98728.78;5049548;28;20049;-70
2021/01/13 02:12:32;;;;;;;25.45;17.15;;;;;;;1.93;69.15;98724.78;5050103;28;20132;-69
2021/01/13 02:15:00;;;;;;;21.60;17.63;;;;;;;1.90;68.41;98717.16;5049424;28;20045;-70
2021/01/13 02:17:32;;;;;;;20.63;16.85;;;;;;;1.90;68.14;98717.16;5048463;28;20052;-71
2021/01/13 02:20:11;;;;;;;22.60;15.80;;;;;;;1.84;67.88;98733.16;5047925;28;20057;-78
2021/01/13 02:22:53;;;;;;;16.20;13.07;;;;;;;1.79;66.85;98735.19;5049268;28;20052;-73
2021/01/13 02:26:04;;;;;;;17.17;11.57;;;;;;;1.77;66.09;98757.88;5046357;28;20049;-78
2021/01/13 02:28:49;;;;;;;19.73;11.30;;;;;;;1.73;65.11;98757.22;5049167;28;20075;-72
2021/01/13 02:31:40;;;;;;;12.18;9.45;;;;;;;1.66;64.07;98761.13;5045430;28;20051;-75
2021/01/13 02:34:23;;;;;;;13.10;10.50;;;;;;;1.61;64.03;98768.38;5049091;28;20049;-69
2021/01/13 02:37:20;;;;;;;13.27;10.10;;;;;;;1.60;63.89;98766.69;5048226;28;20485;-70
2021/01/13 02:39:48;;;;;;;12.73;9.27;;;;;;;1.56;64.00;98773.00;5047680;28;20053;-78
2021/01/13 02:42:21;;;;;;;20.23;10.95;;;;;;;1.54;63.62;98775.69;5049380;28;20045;-67
2021/01/13 02:45:04;;;;;;;12.18;8.63;;;;;;;1.62;62.89;98775.22;5046952;28;20052;-78
2021/01/13 02:48:01;;;;;;;15.07;8.75;;;;;;;1.61;62.70;98779.59;5046790;28;20107;-75
2021/01/13 02:50:29;;;;;;;14.30;9.45;;;;;;;1.58;63.27;98790.19;4965078;28;20046;-75
2021/01/13 02:53:21;;;;;;;10.93;9.27;;;;;;;1.54;63.83;98786.09;4964983;28;20507;-70
2021/01/13 02:56:02;;;;;;;12.90;9.77;;;;;;;1.55;64.23;98790.41;4951064;28;20051;-79
2021/01/13 02:58:34;;;;;;;12.00;9.10;;;;;;;1.51;64.60;98792.34;4965781;28;20083;-67
2021/01/13 03:01:06;;;;;;;16.52;12.60;;;;;;;1.52;64.39;98780.97;4968273;28;20118;-76
2021/01/13 03:03:33;;;;;;;12.85;11.00;;;;;;;1.45;65.05;98777.06;4970365;28;20094;-69
2021/01/13 03:06:05;;;;;;;15.68;10.63;;;;;;;1.45;64.83;98784.03;4969229;28;20043;-77
2021/01/13 03:08:44;;;;;;;14.15;9.88;;;;;;;1.44;65.29;98790.16;4970468;28;20054;-68
2021/01/13 03:11:14;;;;;;;14.35;11.43;;;;;;;1.48;64.60;98786.47;4967596;28;20055;-68
2021/01/13 03:13:44;;;;;;;13.63;10.55;;;;;;;1.51;64.92;98781.06;4966317;28;20603;-68
2021/01/13 03:16:12;;;;;;;14.05;12.10;;;;;;;1.48;64.87;98791.69;4966336;28;20051;-79
2021/01/13 03:18:50;;;;;;;14.15;10.13;;;;;;;1.42;64.72;98797.22;4967211;28;20067;-68
2021/01/13 03:21:20;;;;;;;15.10;11.10;;;;;;;1.40;64.73;98801.69;4965323;28;20058;-69
2021/01/13 03:23:54;;;;;;;11.57;8.73;;;;;;;1.34;63.97;98795.91;4967633;28;20050;-79
2021/01/13 03:26:27;;;;;;;12.43;10.00;;;;;;;1.31;63.51;98796.09;4985205;28;20048;-74
2021/01/13 03:28:56;;;;;;;15.23;12.32;;;;;;;1.28;62.44;98792.84;5048091;28;20044;-68
2021/01/13 03:31:28;;;;;;;14.00;10.05;;;;;;;1.25;61.15;98799.03;5048540;28;20045;-70
2021/01/13 03:34:24;;;;;;;12.90;9.00;;;;;;;1.26;60.90;98803.34;5048006;28;20107;-78
2021/01/13 03:36:57;;;;;;;;;;;;;;;1.33;61.60;98809.84;5048033;28;20095;-77
2021/01/13 03:39:24;;;;;;;11.10;9.10;;;;;;;1.14;61.71;98807.47;5047865;28;20007;-69
2021/01/13 03:42:08;;;;;;;14.07;8.88;;;;;;;1.13;61.99;98816.19;5046747;28;20045;-69
2021/01/13 03:44:36;;;;;;;14.80;9.40;;;;;;;1.15;62.04;98813.50;5047799;28;20484;-69
2021/01/13 03:47:47;;;;;;;14.75;10.45;;;;;;;1.16;62.10;98816.94;5048445;28;20056;-67
2021/01/13 03:50:32;;;;;;;11.48;8.13;;;;;;;1.20;61.54;98815.84;4982496;28;20046;-68
2021/01/13 03:53:00;;;;;;;16.55;9.55;;;;;;;1.20;61.64;98811.47;4986508;28;20518;-74
2021/01/13 03:55:29;;;;;;;15.02;10.15;;;;;;;1.06;61.98;98817.47;4985543;28;20668;-68
2021/01/13 03:58:44;;;;;;;16.10;9.05;;;;;;;1.20;61.83;98824.47;4968471;28;20050;-70
2021/01/13 04:01:41;;;;;;;29.98;14.60;;;;;;;1.31;61.80;98835.13;4889234;29;20076;-75
2021/01/13 04:04:36;;;;;;;33.28;16.38;;;;;;;1.33;62.10;98833.28;4888190;29;20106;-71
2021/01/13 04:07:09;;;;;;;17.85;10.52;;;;;;;1.36;62.03;98831.41;4851388;29;20053;-69
2021/01/13 04:09:35;;;;;;;31.70;14.23;;;;;;;1.38;62.01;98839.97;4851386;29;20053;-68
2021/01/13 04:12:13;;;;;;;43.78;20.45;;;;;;;1.38;62.29;98839.97;4850610;29;20137;-67
2021/01/13 04:15:01;;;;;;;62.67;26.98;;;;;;;1.38;62.27;98830.38;4850787;29;20137;-68
2021/01/13 04:17:28;;;;;;;21.63;12.77;;;;;;;1.27;62.34;98832.78;4851373;29;20054;-69
2021/01/13 04:19:55;;;;;;;19.00;11.00;;;;;;;1.29;62.90;98825.72;4848190;29;20104;-73
2021/01/13 04:22:26;;;;;;;45.50;21.75;;;;;;;1.30;62.66;98835.22;4851435;29;20530;-69
2021/01/13 04:24:54;;;;;;;73.88;28.23;;;;;;;1.27;62.97;98835.38;4852035;29;20570;-68
2021/01/13 04:27:21;;;;;;;32.67;19.02;;;;;;;1.19;63.09;98841.03;4899161;29;20055;-68
2021/01/13 04:29:47;;;;;;;41.85;22.63;;;;;;;1.20;63.74;98841.84;4907551;29;20232;-68
2021/01/13 04:32:14;;;;;;;18.90;13.60;;;;;;;1.15;64.00;98844.69;4906708;29;20052;-70
2021/01/13 04:34:42;;;;;;;18.33;11.20;;;;;;;1.23;64.08;98841.69;4906700;29;20056;-69
2021/01/13 04:37:10;;;;;;;80.25;34.20;;;;;;;1.23;63.79;98836.47;4918984;28;20051;-69
2021/01/13 04:39:38;;;;;;;19.17;11.15;;;;;;;1.24;64.12;98839.00;4963948;28;20042;-67
2021/01/13 04:42:07;;;;;;;29.30;15.02;;;;;;;1.22;64.30;98845.19;4966541;28;20125;-69
2021/01/13 04:44:35;;;;;;;24.55;10.32;;;;;;;1.33;64.11;98848.00;5026405;28;20121;-70
2021/01/13 04:47:06;;;;;;;18.30;10.98;;;;;;;1.32;64.43;98841.97;5046539;28;20120;-68
2021/01/13 04:49:33;;;;;;;23.83;13.25;;;;;;;1.30;64.33;98843.84;5045188;28;20049;-69
2021/01/13 04:52:06;;;;;;;21.85;12.65;;;;;;;1.32;64.24;98841.97;5047020;28;20055;-68
2021/01/13 04:54:36;;;;;;;15.63;12.10;;;;;;;1.31;64.31;98849.88;5046770;28;20053;-68
2021/01/13 04:57:29;;;;;;;18.55;12.38;;;;;;;1.29;64.81;98844.75;5047352;28;20053;-71
2021/01/13 05:00:07;;;;;;;33.13;13.73;;;;;;;1.37;64.50;98859.94;5047666;28;20080;-70
2021/01/13 05:02:53;;;;;;;22.20;13.50;;;;;;;1.39;64.64;98859.84;5045860;28;20476;-69
2021/01/13 05:05:21;;;;;;;30.65;16.75;;;;;;;1.39;64.38;98858.09;5048161;28;20056;-74
2021/01/13 05:08:12;;;;;;;17.77;12.15;;;;;;;1.36;64.86;98860.84;5046827;28;20091;-71
2021/01/13 05:10:42;;;;;;;27.73;13.63;;;;;;;1.40;65.15;98851.13;5045849;28;20049;-69
2021/01/13 05:13:15;;;;;;;41.17;18.42;;;;;;;1.48;64.62;98852.34;5046777;28;20052;-68
2021/01/13 05:15:53;;;;;;;47.95;21.90;;;;;;;1.50;64.80;98865.28;5046058;28;20060;-67
2021/01/13 05:18:47;;;;;;;59.08;25.70;;;;;;;1.58;64.56;98862.22;5046368;28;20048;-69
2021/01/13 05:21:18;;;;;;;59.08;22.90;;;;;;;1.65;64.48;98861.78;5044639;28;20127;-78
2021/01/13 05:23:45;;;;;;;57.92;28.50;;;;;;;1.62;64.52;98880.19;5045864;28;20045;-68
2021/01/13 05:26:17;;;;;;;28.92;15.60;;;;;;;1.63;64.74;98875.81;5045283;28;20045;-72
2021/01/13 05:29:13;;;;;;;47.25;22.40;;;;;;;1.58;64.80;98878.66;5045535;28;20622;-71
2021/01/13 05:31:43;;;;;;;28.80;15.80;;;;;;;1.64;64.88;98878.34;5046120;28;20081;-68
2021/01/13 05:34:13;;;;;;;39.55;20.58;;;;;;;1.62;64.69;98880.19;5045416;28;20049;-69
2021/01/13 05:36:52;;;;;;;41.38;18.67;;;;;;;1.65;64.80;98884.38;5044987;28;20130;-69
2021/01/13 05:39:24;;;;;;;46.28;24.30;;;;;;;1.63;65.00;98886.22;5045338;28;20124;-69
2021/01/13 05:41:51;;;;;;;32.33;16.75;;;;;;;1.64;64.96;98893.94;5045119;28;20062;-69
2021/01/13 05:44:25;;;;;;;19.60;11.82;;;;;;;1.60;65.25;98892.44;5043764;28;20079;-69
2021/01/13 05:47:02;;;;;;;28.48;12.48;;;;;;;1.68;65.11;98898.03;5046331;28;20049;-68
2021/01/13 05:49:29;;;;;;;38.80;18.80;;;;;;;1.71;64.79;98900.47;5043415;28;20053;-67
2021/01/13 05:52:04;;;;;;;56.20;23.45;;;;;;;1.74;64.89;98912.47;5044815;28;20574;-68
2021/01/13 05:54:33;;;;;;;44.80;20.63;;;;;;;1.79;64.83;98913.03;5044637;28;20106;-68
2021/01/13 05:57:01;;;;;;;31.52;15.07;;;;;;;1.74;65.28;98909.88;5044037;28;20056;-70
2021/01/13 05:59:34;;;;;;;30.83;17.02;;;;;;;1.72;65.39;98912.53;5044153;28;20103;-68
2021/01/13 06:02:02;;;;;;;32.90;16.70;;;;;;;1.80;65.03;98914.72;5045474;28;20658;-72
2021/01/13 06:04:29;;;;;;;27.70;13.60;;;;;;;1.86;65.07;98916.13;5044820;28;20095;-69
2021/01/13 06:07:05;;;;;;;24.98;11.75;;;;;;;1.88;64.80;98906.47;5048853;28;20041;-71
2021/01/13 06:09:39;;;;;;;17.08;7.25;;;;;;;1.97;64.78;98905.09;5048287;28;20052;-69
2021/01/13 06:12:13;;;;;;;22.35;9.90;;;;;;;2.06;64.50;98905.38;5048181;28;20094;-71
2021/01/13 06:14:41;;;;;;;23.25;11.45;;;;;;;2.08;64.40;98926.13;5048327;28;20448;-69
2021/01/13 06:17:17;;;;;;;19.67;9.43;;;;;;;2.09;64.47;98920.84;5048315;28;20049;-70
2021/01/13 06:19:48;;;;;;;24.27;13.75;;;;;;;2.15;64.72;98930.06;5046981;28;20474;-68
2021/01/13 06:22:15;;;;;;;22.38;10.07;;;;;;;2.17;64.52;98916.94;5049984;28;20076;-70
2021/01/13 06:24:42;;;;;;;32.63;13.85;;;;;;;2.19;64.47;98926.31;5049667;28;20072;-70
2021/01/13 06:27:19;;;;;;;16.23;10.32;;;;;;;2.22;64.61;98927.94;5051242;28;20049;-78
2021/01/13 06:29:51;;;;;;;19.67;9.98;;;;;;;2.29;64.61;98937.88;5052120;28;20049;-73
2021/01/13 06:32:20;;;;;;;22.77;11.15;;;;;;;2.35;64.50;98936.69;5051221;28;20045;-76
2021/01/13 06:35:17;;;;;;;32.80;18.48;;;;;;;2.32;64.66;98942.06;5056968;28;20120;-72
2021/01/13 06:37:50;;;;;;;27.42;14.82;;;;;;;2.30;64.70;98941.31;5055172;28;20049;-69
2021/01/13 06:40:18;;;;;;;36.65;17.88;;;;;;;2.24;64.85;98949.50;5056160;28;20053;-70
2021/01/13 06:42:44;;;;;;;28.83;18.02;;;;;;;2.25;65.02;98948.56;5051517;28;20177;-75
2021/01/13 06:45:13;;;;;;;31.73;16.33;;;;;;;2.24;65.24;98952.13;5051062;28;20045;-76
2021/01/13 06:47:55;;;;;;;28.85;16.92;;;;;;;2.15;66.04;98958.69;5053447;28;20056;-73
2021/01/13 06:50:33;;;;;;;32.13;15.35;;;;;;;2.12;66.48;98966.69;5049371;28;20049;-73
2021/01/13 06:53:00;;;;;;;33.38;13.00;;;;;;;2.11;66.22;98965.03;5048469;28;20132;-70
2021/01/13 06:55:32;;;;;;;34.40;19.38;;;;;;;2.12;66.31;98961.47;5046902;28;20133;-77
2021/01/13 06:58:08;;;;;;;32.97;16.58;;;;;;;2.05;66.96;98955.81;5049214;28;20045;-68
2021/01/13 07:00:36;;;;;;;26.92;12.07;;;;;;;2.16;66.53;98969.94;5047660;28;20152;-75
2021/01/13 07:03:25;;;;;;;35.58;15.20;;;;;;;2.24;66.38;98971.19;5048294;28;20075;-75
2021/01/13 07:05:52;;;;;;;48.90;25.60;;;;;;;2.20;66.70;98976.69;5047401;28;20382;-69
2021/01/13 07:08:19;;;;;;;43.97;23.70;;;;;;;2.21;66.78;98986.97;5047170;28;20052;-70
2021/01/13 07:10:46;;;;;;;37.42;19.95;;;;;;;2.24;66.82;98984.22;5044260;28;20041;-69
2021/01/13 07:13:16;;;;;;;38.53;22.02;;;;;;;2.26;66.96;98989.34;5047347;28;20056;-75
2021/01/13 07:15:45;;;;;;;39.85;23.38;;;;;;;2.25;67.02;98980.69;5045318;28;20065;-72
2021/01/13 07:18:12;;;;;;;42.58;26.30;;;;;;;2.25;67.01;98992.84;5046483;28;20063;-68
2021/01/13 07:20:39;;;;;;;37.75;22.40;;;;;;;2.17;67.37;99001.13;5047415;28;20045;-69
2021/01/13 07:23:07;;;;;;;41.17;25.50;;;;;;;2.12;67.70;99004.94;5050095;28;20074;-76
2021/01/13 07:25:44;;;;;;;52.35;29.92;;;;;;;2.14;67.91;99001.28;5051260;28;20045;-68
2021/01/13 07:28:11;;;;;;;36.70;24.65;;;;;;;2.07;67.80;99000.81;5051917;28;20048;-74
2021/01/13 07:30:40;;;;;;;39.72;26.08;;;;;;;2.00;68.21;99007.31;5048324;28;20189;-69
2021/01/13 07:33:10;;;;;;;42.90;25.30;;;;;;;2.01;68.44;99014.19;5049633;28;20106;-79
2021/01/13 07:35:44;;;;;;;38.15;24.73;;;;;;;2.00;68.56;99009.91;5032117;28;20049;-81
2021/01/13 07:38:15;;;;;;;32.50;19.35;;;;;;;2.08;68.22;99010.31;5048130;28;20147;-71
2021/01/13 07:40:57;;;;;;;31.88;19.75;;;;;;;2.06;68.62;99021.75;5050338;28;20390;-70
2021/01/13 07:44:01;;;;;;;31.13;22.98;;;;;;;2.07;68.48;99021.66;5048874;28;20207;-75
2021/01/13 07:46:30;;;;;;;37.22;25.02;;;;;;;2.04;68.62;99027.03;5046151;28;20048;-70
2021/01/13 07:49:22;;;;;;;33.05;21.90;;;;;;;2.04;68.72;99024.44;5047852;28;20041;-78
2021/01/13 07:51:51;;;;;;;32.38;21.33;;;;;;;2.08;68.56;99032.91;5051332;28;20049;-71
2021/01/13 07:54:45;;;;;;;30.65;20.55;;;;;;;2.18;68.41;99039.28;5061514;28;20091;-74
2021/01/13 07:57:22;;;;;;;36.13;24.00;;;;;;;2.18;68.14;99033.22;5046970;28;20052;-77
2021/01/13 08:00:05;;;;;;;33.20;22.98;;;;;;;2.19;68.33;99034.91;5045505;28;20148;-74
2021/01/13 08:03:07;;;;;;;35.53;22.35;;;;;;;2.32;68.02;99041.06;5014238;28;20107;-74
2021/01/13 08:06:18;;;;;;;33.45;23.90;;;;;;;2.32;67.59;99046.28;5048517;28;20103;-69
2021/01/13 08:09:06;;;;;;;23.42;16.77;;;;;;;2.36;67.27;99042.59;5045717;28;20045;-77
2021/01/13 08:12:09;;;;;;;28.90;20.02;;;;;;;2.25;67.79;99042.34;5046941;28;20055;-69
2021/01/13 08:15:26;;;;;;;26.67;17.40;;;;;;;2.22;67.21;99039.94;5043627;28;20136;-73
2021/01/13 08:18:39;;;;;;;24.35;15.48;;;;;;;2.24;67.05;99048.50;5043452;28;20048;-69
2021/01/13 08:21:13;;;;;;;20.77;16.95;;;;;;;2.18;66.61;99046.25;4963855;28;20085;-71
2021/01/13 08:23:51;;;;;;;18.40;13.98;;;;;;;2.20;65.79;99050.44;4965288;28;20078;-73
2021/01/13 08:26:18;;;;;;;19.70;11.85;;;;;;;2.18;65.10;99048.84;4969716;28;20043;-71
2021/01/13 08:28:50;;;;;;;20.48;12.40;;;;;;;2.18;65.31;99054.06;4970215;28;20046;-72
2021/01/13 08:31:21;;;;;;;17.67;13.00;;;;;;;2.24;64.81;99051.13;4971640;28;20050;-75
2021/01/13 08:33:50;;;;;;;18.02;10.90;;;;;;;2.20;64.90;99062.66;4970746;28;20094;-72
2021/01/13 08:36:21;;;;;;;14.40;10.23;;;;;;;2.18;64.30;99060.13;4967901;28;20038;-72
2021/01/13 08:39:13;;;;;;;17.15;10.80;;;;;;;2.25;63.65;99066.66;4969464;28;20079;-79
2021/01/13 08:41:40;;;;;;;19.83;11.98;;;;;;;2.21;63.56;99065.13;4974246;28;20054;-72
2021/01/13 08:44:12;;;;;;;24.73;10.10;;;;;;;2.24;63.41;99077.16;4970169;28;20042;-73
2021/01/13 08:46:41;;;;;;;18.13;10.50;;;;;;;2.33;63.07;99079.25;4967549;28;20050;-71
2021/01/13 08:49:09;;;;;;;20.48;12.32;;;;;;;2.31;63.11;99082.88;4967799;28;20046;-71
2021/01/13 08:51:37;;;;;;;23.08;12.48;;;;;;;2.32;62.57;99087.97;4969113;28;20049;-73
2021/01/13 08:54:20;;;;;;;23.75;12.18;;;;;;;2.32;62.58;99082.75;4981132;28;20164;-73
2021/01/13 08:56:58;;;;;;;16.60;9.43;;;;;;;2.31;62.31;99086.31;5002889;28;20272;-72
2021/01/13 08:59:39;;;;;;;14.60;9.18;;;;;;;2.31;62.80;99086.31;5061316;28;20062;-76
2021/01/13 09:02:07;;;;;;;17.13;10.23;;;;;;;2.34;62.85;99088.75;5060923;28;20059;-70
2021/01/13 09:04:48;;;;;;;15.95;9.23;;;;;;;2.38;62.50;99087.63;5060709;28;20044;-71
2021/01/13 09:07:17;;;;;;;14.90;9.88;;;;;;;2.45;62.56;99099.38;5060247;28;20090;-72
2021/01/13 09:09:54;;;;;;;18.55;8.88;;;;;;;2.55;62.23;99088.44;5060277;28;20048;-69
2021/01/13 09:12:38;;;;;;;16.60;9.57;;;;;;;2.60;62.26;99084.63;5060726;28;20055;-71
2021/01/13 09:15:26;;;;;;;18.88;9.15;;;;;;;2.68;62.24;99089.38;5060840;28;20044;-72
2021/01/13 09:17:58;;;;;;;15.40;9.27;;;;;;;2.71;62.29;99084.00;4978589;28;20054;-71
2021/01/13 09:20:28;;;;;;;13.65;8.63;;;;;;;2.85;61.90;99078.78;4976298;28;20054;-71
2021/01/13 09:22:58;;;;;;;12.00;5.55;;;;;;;3.09;61.66;99080.03;4977533;28;20564;-71
2021/01/13 09:25:26;;;;;;;16.65;10.13;;;;;;;3.00;61.44;99076.22;4979140;28;20065;-71
2021/01/13 09:27:54;;;;;;;19.02;12.32;;;;;;;3.01;61.83;99080.50;4977640;28;20054;-70
2021/01/13 09:30:36;;;;;;;12.35;8.90;;;;;;;3.13;61.58;99073.69;4977864;28;20046;-72
2021/01/13 09:33:07;;;;;;;13.02;9.27;;;;;;;3.20;61.51;99075.81;4976290;28;20418;-74
2021/01/13 09:35:36;;;;;;;12.93;9.40;;;;;;;3.30;61.31;99070.91;4976126;28;20184;-70
2021/01/13 09:38:06;;;;;;;17.98;8.02;;;;;;;3.37;61.16;99071.38;4977693;28;20098;-72
2021/01/13 09:41:00;;;;;;;14.88;8.90;;;;;;;3.43;61.19;99066.59;4977684;28;20077;-70
2021/01/13 09:43:37;;;;;;;16.67;8.82;;;;;;;3.38;61.26;99066.03;4903414;29;20059;-72
2021/01/13 09:46:06;;;;;;;23.60;10.40;;;;;;;3.41;61.21;99065.00;4904632;29;20052;-71
2021/01/13 09:48:34;;;;;;;18.55;11.95;;;;;;;3.32;61.69;99069.03;4904499;29;20299;-71
2021/01/13 09:51:05;;;;;;;17.45;11.48;;;;;;;3.29;62.07;99071.00;4902289;29;20052;-73
2021/01/13 09:53:38;;;;;;;23.08;10.43;;;;;;;3.38;61.82;99070.41;4903905;29;20056;-72
2021/01/13 09:56:08;;;;;;;22.52;14.15;;;;;;;3.34;61.75;99068.94;4998253;28;20080;-71
2021/01/13 09:58:43;;;;;;;15.80;10.00;;;;;;;3.43;61.71;99071.81;5000948;28;20072;-73
2021/01/13 10:01:15;;;;;;;19.60;10.07;;;;;;;3.62;61.31;99066.28;4984200;28;20049;-72
2021/01/13 10:03:44;;;;;;;18.58;10.88;;;;;;;3.73;60.81;99070.00;5000056;28;20060;-70
2021/01/13 10:06:15;;;;;;;23.08;11.25;;;;;;;3.69;61.22;99076.34;5000513;28;20119;-71
2021/01/13 10:08:43;;;;;;;21.55;11.90;;;;;;;3.63;61.20;99072.34;5000695;28;20042;-70
2021/01/13 10:11:11;;;;;;;21.75;12.00;;;;;;;3.50;61.42;99066.22;5001784;28;20132;-70
2021/01/13 10:13:39;;;;;;;21.67;13.07;;;;;;;3.48;61.56;99068.09;5001077;28;20071;-71
2021/01/13 10:16:08;;;;;;;15.82;9.30;;;;;;;3.55;61.61;99070.22;5001553;28;20050;-71
2021/01/13 10:18:34;;;;;;;19.67;14.57;;;;;;;3.46;61.52;99073.41;4984972;28;20044;-70
2021/01/13 10:21:02;;;;;;;21.38;13.82;;;;;;;3.36;62.47;99074.91;5062489;28;20063;-70
2021/01/13 10:23:30;;;;;;;22.38;16.67;;;;;;;3.44;61.88;99075.28;5062931;28;20131;-72
2021/01/13 10:26:05;;;;;;;22.90;16.02;;;;;;;3.37;61.80;99071.38;5063281;28;20131;-71
2021/01/13 10:28:32;;;;;;;24.57;14.80;;;;;;;3.45;61.75;99071.72;5062004;28;20048;-70
2021/01/13 10:31:00;;;;;;;23.08;13.65;;;;;;;3.61;61.54;99072.44;5061268;28;20059;-73
2021/01/13 10:33:47;;;;;;;21.30;15.07;;;;;;;3.67;61.27;99080.81;5061512;28;20052;-71
2021/01/13 10:36:33;;;;;;;21.35;12.13;;;;;;;3.72;60.79;99069.16;5062275;28;20075;-72
2021/01/13 10:39:01;;;;;;;24.63;14.88;;;;;;;3.72;60.64;99078.75;5066280;28;20044;-72
2021/01/13 10:41:33;;;;;;;20.45;15.00;;;;;;;3.66;60.52;99073.94;5067120;28;20053;-75
2021/01/13 10:44:10;;;;;;;20.42;12.25;;;;;;;3.62;60.53;99075.91;5064339;28;20049;-74
2021/01/13 10:46:54;;;;;;;18.67;13.48;;;;;;;3.61;60.67;99076.81;5065728;28;20060;-73
2021/01/13 10:49:31;;;;;;;19.52;12.65;;;;;;;3.62;59.90;99076.72;5066175;28;20639;-73
2021/01/13 10:51:59;;;;;;;18.65;12.82;;;;;;;3.55;60.11;99075.44;5062669;28;20055;-74
2021/01/13 10:54:28;;;;;;;19.27;13.70;;;;;;;3.52;60.53;99080.00;5062951;28;20052;-79
2021/01/13 10:56:59;;;;;;;21.92;14.18;;;;;;;3.53;60.74;99076.44;5063978;28;20059;-73
2021/01/13 10:59:28;;;;;;;19.83;13.93;;;;;;;3.60;60.39;99064.69;5064164;28;20048;-72
2021/01/13 11:01:58;;;;;;;15.75;11.63;;;;;;;3.55;60.43;99070.22;5064048;28;20539;-75
2021/01/13 11:04:27;;;;;;;19.65;11.20;;;;;;;3.68;60.49;99072.88;5065072;28;20100;-72
2021/01/13 11:06:59;;;;;;;19.45;11.50;;;;;;;3.74;60.30;99074.28;5065835;28;20052;-73
2021/01/13 11:09:26;;;;;;;14.75;10.05;;;;;;;3.72;60.13;99063.09;5063458;28;20117;-74
2021/01/13 11:11:56;;;;;;;13.73;10.73;;;;;;;3.82;59.94;99056.34;5062062;28;20155;-74
2021/01/13 11:14:30;;;;;;;18.02;11.95;;;;;;;3.94;59.62;99052.97;5063657;28;20048;-73
2021/01/13 11:17:05;;;;;;;21.08;11.23;;;;;;;4.06;59.81;99058.31;5063822;28;20110;-72
2021/01/13 11:19:33;;;;;;;17.63;10.95;;;;;;;3.99;59.38;99053.47;5062292;28;20117;-75
2021/01/13 11:22:00;;;;;;;14.40;9.82;;;;;;;3.90;59.74;99054.06;5062205;28;20056;-78
2021/01/13 11:24:35;;;;;;;20.05;12.00;;;;;;;3.98;59.53;99049.22;5063450;28;20088;-72
2021/01/13 11:27:06;;;;;;;18.30;11.88;;;;;;;3.84;59.53;99038.81;5066145;28;20055;-72
2021/01/13 11:29:37;;;;;;;18.20;11.88;;;;;;;3.77;59.74;99048.81;5068313;28;20496;-73
2021/01/13 11:32:06;;;;;;;17.25;10.48;;;;;;;3.63;60.22;99051.44;5067069;28;20259;-72
2021/01/13 11:34:34;;;;;;;14.02;8.23;;;;;;;3.69;59.85;99048.47;5066961;28;20063;-72
2021/01/13 11:37:21;;;;;;;17.75;11.35;;;;;;;3.83;60.03;99045.81;5067907;28;20064;-74
2021/01/13 11:39:56;;;;;;;18.20;12.70;;;;;;;3.73;60.15;99052.56;5064199;28;20136;-75
2021/01/13 11:43:07;;;;;;;20.38;11.27;;;;;;;3.61;60.34;99050.72;5068103;28;20045;-71
2021/01/13 11:45:43;;;;;;;24.90;15.52;;;;;;;3.59;60.77;99044.75;5066051;28;20041;-77
2021/01/13 11:48:15;;;;;;;22.45;14.00;;;;;;;3.54;61.04;99038.97;5068549;28;20657;-76
2021/01/13 11:50:46;;;;;;;21.20;13.93;;;;;;;3.62;60.67;99029.72;5068159;28;20123;-74
2021/01/13 11:53:21;;;;;;;22.20;12.38;;;;;;;3.64;60.97;99040.91;5065388;28;20381;-75
2021/01/13 11:55:48;;;;;;;20.20;10.73;;;;;;;3.74;60.71;99029.88;5067727;28;20194;-75
2021/01/13 11:58:17;;;;;;;19.40;11.55;;;;;;;3.86;60.66;99036.94;5067077;28;20044;-74